Lambert St Louis International Airport
KSTL : now visible

Airfield :











YOU CAN JOIN US ON...

 
LOGIN :

Register | Disclaimer

   EN    FR    IT 

 









Legend :    VFR   Marginal VFR   IFR   Intensive IFR   Very Intensive IFR
Visi :
Ceiling :
>= 8 km
>= 3000ft
5 to 8 km
1000 to 3000 ft
1500m to 5 km
500 to 1000 ft
800 to 1500m
200 to 500 ft
< 800m
< 200 ft
Symbols :   Thunderstorms  Fog  Heavy snow  Heavy precipitations  Wind > 20 kt






- Airport Elevation : 618 ft
- IATA code : STL


KSTL - Lambert St Louis International

CURRENT METAR :
  • 211551Z 07008KT 3SM BR OVC004 11/09 A3021 RMK AO2 RAB20E29 SLP229 P0000 T01060089

EXPIRED METARs :
  • 211522Z 03007KT 4SM -RA BR OVC004 10/08 A3023 RMK AO2 RAB20 P0000 T01000083
  • 211451Z 04008KT 5SM BR OVC005 11/08 A3023 RMK AO2 SLP234 T01060083 53018
  • 211351Z 02007KT 5SM BR OVC006 11/09 A3021 RMK AO2 SLP228 T01060089

TAF KSTL
Valid from the 21 at 15:00 until the 22 at 18:00 UTC


211512Z 2115/2218 04008KT 5SM BR VCSH OVC005
FM211700 06006KT 6SM BR OVC008
FM211900 09006KT P6SM OVC012
FM212200 10006KT P6SM OVC020
FM220000 11005KT P6SM BKN030
KZKC FIR / North America



MET'MAP, your aeronautical weather chart ! - Copyright ORBIFLY December 2007 - Disclaimer

ORBIFLY MET'MAP TEAM :

Programming & Development : Alexandra Zaïnal
Concept & original design : Baudouin d'Aumeries
Assistance for programming : Marc-Olivier Méhu
Technical & hardware support : Manuel Goepfert

Contact : metmap@orbifly.com




SOURCES & CREDITS :

   NOAA       Earth
Advisory